createdAt,value
2023-01-25T00:31:59.064Z,2.10
2023-01-25T00:49:24.116Z,2.10
2023-01-25T00:51:52.093Z,2.10
2023-01-25T01:06:42.076Z,2.10
2023-01-25T01:09:13.210Z,2.10
2023-01-25T01:16:35.229Z,2.00
2023-01-25T01:31:23.293Z,2.10
2023-01-25T01:33:52.177Z,2.10
2023-01-25T01:36:21.561Z,2.10
2023-01-25T01:41:16.715Z,2.10
2023-01-25T01:43:43.944Z,2.00
2023-01-25T01:46:27.802Z,2.00
2023-01-25T01:54:00.205Z,1.90
2023-01-25T01:56:57.065Z,1.90
2023-01-25T01:59:30.309Z,1.90
2023-01-25T02:04:27.160Z,1.90
2023-01-25T02:09:24.700Z,1.90
2023-01-25T02:11:53.024Z,1.90
2023-01-25T02:19:29.855Z,1.90
2023-01-25T02:21:59.011Z,1.90
2023-01-25T02:24:33.150Z,2.00
2023-01-25T02:29:29.470Z,2.00
2023-01-25T02:32:02.734Z,1.90
2023-01-25T02:39:26.711Z,1.80
2023-01-25T02:44:25.169Z,1.80
2023-01-25T02:51:55.813Z,1.80
2023-01-25T03:09:10.119Z,1.70
2023-01-25T03:24:01.669Z,1.50
2023-01-25T03:26:29.304Z,1.50
2023-01-25T03:56:10.899Z,1.50
2023-01-25T03:58:39.477Z,1.50
2023-01-25T04:01:07.583Z,1.50
2023-01-25T04:03:35.141Z,1.50
2023-01-25T04:11:01.081Z,1.50
2023-01-25T04:13:28.596Z,1.40
2023-01-25T04:20:54.871Z,1.50
2023-01-25T04:26:05.314Z,1.40
2023-01-25T04:28:33.433Z,1.40
2023-01-25T04:40:51.441Z,1.40
2023-01-25T04:43:19.483Z,1.40
2023-01-25T04:50:42.996Z,1.40
2023-01-25T04:53:11.670Z,1.40
2023-01-25T05:25:26.794Z,1.40
2023-01-25T05:32:50.098Z,1.50
2023-01-25T06:56:19.283Z,1.80
2023-01-25T07:01:22.736Z,1.80
2023-01-25T07:03:50.904Z,1.90
2023-01-25T07:11:14.011Z,1.80
2023-01-25T07:13:48.755Z,1.80
2023-01-25T07:16:19.779Z,1.90
2023-01-25T07:18:47.294Z,1.90
2023-01-25T07:21:23.076Z,1.90
2023-01-25T07:23:50.887Z,1.90
2023-01-25T07:26:20.587Z,1.90
2023-01-25T07:28:48.285Z,1.90
2023-01-25T07:31:16.361Z,1.90
2023-01-25T07:36:11.631Z,1.90
2023-01-25T07:46:02.876Z,1.80
2023-01-25T07:51:22.844Z,1.90
2023-01-25T07:53:55.398Z,1.80
2023-01-25T07:56:28.142Z,1.80
2023-01-25T07:58:56.438Z,1.80
2023-01-25T08:01:25.836Z,1.80
2023-01-25T08:03:55.700Z,1.70
2023-01-25T08:06:30.745Z,1.80
2023-01-25T08:08:58.972Z,1.80
2023-01-25T08:11:28.346Z,1.70
2023-01-25T08:16:25.031Z,1.80
2023-01-25T08:18:55.163Z,1.80
2023-01-25T08:21:24.324Z,1.80
2023-01-25T08:31:19.118Z,1.80
2023-01-25T08:36:15.256Z,1.80
2023-01-25T08:41:16.298Z,1.80
2023-01-25T08:43:44.332Z,1.90
2023-01-25T08:46:12.268Z,1.80
2023-01-25T08:51:09.414Z,1.90
2023-01-25T08:56:07.721Z,1.80
2023-01-25T09:01:04.569Z,1.90
2023-01-25T09:30:46.837Z,1.80
2023-01-25T09:35:49.157Z,1.80
2023-01-25T09:40:53.271Z,1.80
2023-01-25T09:44:04.583Z,1.80
2023-01-25T09:46:44.115Z,1.80
2023-01-25T09:49:37.108Z,1.70
2023-01-25T09:52:14.577Z,1.70
2023-01-25T09:54:47.244Z,1.70
2023-01-25T09:57:29.537Z,1.60
2023-01-25T09:59:57.151Z,1.60
2023-01-25T10:02:40.862Z,1.60
2023-01-25T10:05:30.609Z,1.60
2023-01-25T10:08:05.483Z,1.60
2023-01-25T10:10:43.872Z,1.60
2023-01-25T10:13:16.104Z,1.60
2023-01-25T10:16:06.390Z,1.60
2023-01-25T10:19:08.240Z,1.60
2023-01-25T10:21:43.467Z,1.60
2023-01-25T10:24:21.268Z,1.60
2023-01-25T10:26:57.194Z,1.60
2023-01-25T10:29:36.667Z,1.60
2023-01-25T10:32:32.410Z,1.60
2023-01-25T10:35:19.827Z,1.70
2023-01-25T10:37:53.794Z,1.70
2023-01-25T10:40:26.870Z,1.60
2023-01-25T10:42:59.123Z,1.60
2023-01-25T10:48:03.098Z,1.60
2023-01-25T10:50:38.672Z,1.70
2023-01-25T10:55:33.721Z,1.70
2023-01-25T11:00:40.636Z,1.70
2023-01-25T11:03:20.477Z,1.70
2023-01-25T11:05:57.824Z,1.70
2023-01-25T11:08:30.571Z,1.60
2023-01-25T11:10:58.871Z,1.60
2023-01-25T11:13:32.549Z,1.70
2023-01-25T11:16:04.871Z,1.70
2023-01-25T11:18:35.094Z,1.70
2023-01-25T11:21:22.217Z,1.70
2023-01-25T11:24:11.519Z,1.60
2023-01-25T11:26:40.071Z,1.70
2023-01-25T11:29:15.912Z,1.70
2023-01-25T11:31:46.345Z,1.70
2023-01-25T11:34:21.397Z,1.60
2023-01-25T11:37:09.317Z,1.60
2023-01-25T11:42:42.403Z,1.60
2023-01-25T11:45:35.636Z,1.60
2023-01-25T11:48:09.814Z,1.60
2023-01-25T11:50:47.120Z,1.60
2023-01-25T11:53:34.117Z,1.60
2023-01-25T11:56:12.795Z,1.60
2023-01-25T11:58:45.185Z,1.60
2023-01-25T12:01:38.876Z,1.50
2023-01-25T12:07:37.408Z,1.60
2023-01-25T12:10:28.448Z,1.60
2023-01-25T12:15:42.394Z,1.60
2023-01-25T12:23:29.423Z,1.60
2023-01-25T12:26:07.717Z,1.60
2023-01-25T12:28:45.029Z,1.60
2023-01-25T12:31:23.699Z,1.70
2023-01-25T12:34:16.417Z,1.70
2023-01-25T12:36:50.227Z,1.70
2023-01-25T12:39:30.308Z,1.70
2023-01-25T12:42:24.762Z,1.70
2023-01-25T12:44:58.724Z,1.70
2023-01-25T12:47:45.428Z,1.70
2023-01-25T12:50:18.737Z,1.70
2023-01-25T12:55:15.869Z,1.70
2023-01-25T12:57:59.532Z,1.70
2023-01-25T13:00:49.004Z,1.70
2023-01-25T13:06:11.544Z,1.60
2023-01-25T13:11:32.409Z,1.60
2023-01-25T13:14:20.552Z,1.60
2023-01-25T13:16:53.925Z,1.60
2023-01-25T13:19:31.400Z,1.60
2023-01-25T13:21:59.659Z,1.60
2023-01-25T13:24:47.412Z,1.60
2023-01-25T13:27:36.553Z,1.60
2023-01-25T13:30:26.385Z,1.60
2023-01-25T13:32:56.911Z,1.60
2023-01-25T13:35:38.632Z,1.60
2023-01-25T13:38:24.717Z,1.60
2023-01-25T13:41:12.372Z,1.40
2023-01-25T13:43:41.503Z,1.40
2023-01-25T13:46:12.780Z,1.40
2023-01-25T13:48:57.117Z,1.40
2023-01-25T13:51:27.804Z,1.40
2023-01-25T13:53:59.517Z,1.30
2023-01-25T13:56:29.686Z,1.30
2023-01-25T14:04:03.789Z,1.30
2023-01-25T14:06:34.124Z,1.40
2023-01-25T14:09:07.632Z,1.40
2023-01-25T14:11:42.863Z,1.40
2023-01-25T14:14:29.524Z,1.40
2023-01-25T14:22:33.643Z,1.50
2023-01-25T14:25:14.684Z,1.50
2023-01-25T14:27:43.094Z,1.50
2023-01-25T14:30:26.019Z,1.50
2023-01-25T14:32:55.371Z,1.50
2023-01-25T14:35:43.562Z,1.50
2023-01-25T14:38:33.913Z,1.50
2023-01-25T14:41:16.430Z,1.50
2023-01-25T14:43:49.101Z,1.50
2023-01-25T14:46:32.038Z,1.40
2023-01-25T14:49:25.513Z,1.40
2023-01-25T14:52:14.418Z,1.40
2023-01-25T14:54:57.459Z,1.40
2023-01-25T14:57:35.700Z,1.30
2023-01-25T15:00:06.916Z,1.30
2023-01-25T15:02:47.097Z,1.20
2023-01-25T15:05:24.149Z,1.20
2023-01-25T15:08:12.881Z,1.20
2023-01-25T15:11:18.788Z,1.20
2023-01-25T15:18:53.935Z,1.20
2023-01-25T15:21:25.710Z,1.20
2023-01-25T15:23:54.106Z,1.20
2023-01-25T15:26:28.413Z,1.30
2023-01-25T15:28:57.668Z,1.20
2023-01-25T15:31:29.938Z,1.20
2023-01-25T15:33:57.739Z,1.20
2023-01-25T15:43:48.170Z,1.20
2023-01-25T15:46:27.592Z,1.10
2023-01-25T15:56:20.490Z,1.10
2023-01-25T15:58:52.817Z,1.10
2023-01-25T16:01:20.952Z,1.10
2023-01-25T16:06:32.798Z,1.10
2023-01-25T16:16:24.279Z,1.10
2023-01-25T16:26:24.964Z,1.10
2023-01-25T16:46:19.542Z,1.10
2023-01-25T16:48:47.507Z,1.00
2023-01-25T16:51:23.522Z,1.00
2023-01-25T16:53:51.731Z,1.00
2023-01-25T16:56:26.425Z,1.00
2023-01-25T16:58:57.368Z,1.00
2023-01-25T17:01:25.660Z,1.00
2023-01-25T17:06:28.568Z,1.10
2023-01-25T17:08:57.913Z,1.10
2023-01-25T17:13:55.063Z,1.10
2023-01-25T17:16:23.603Z,1.10
2023-01-25T17:18:55.545Z,1.10
2023-01-25T17:26:19.940Z,1.00
2023-01-25T17:28:47.808Z,1.00
2023-01-25T17:41:08.848Z,1.10
2023-01-25T17:46:25.665Z,1.00
2023-01-25T17:48:53.564Z,1.00
2023-01-25T17:51:22.827Z,1.00
2023-01-25T18:01:22.891Z,1.00
2023-01-25T18:03:51.630Z,1.00
2023-01-25T18:06:21.004Z,1.00
2023-01-25T18:08:50.140Z,1.00
2023-01-25T18:11:25.972Z,1.00
2023-01-25T18:13:55.949Z,0.90
2023-01-25T18:16:24.529Z,0.90
2023-01-25T18:18:53.180Z,0.90
2023-01-25T18:24:02.051Z,0.90
2023-01-25T18:26:31.852Z,0.90
2023-01-25T18:29:02.752Z,0.90
2023-01-25T18:43:50.480Z,0.80
2023-01-25T18:51:17.826Z,0.80
2023-01-25T18:53:47.514Z,0.80
2023-01-25T18:56:17.032Z,0.80
2023-01-25T19:01:16.814Z,0.80
2023-01-25T19:03:45.111Z,0.90
2023-01-25T19:11:13.270Z,0.90
2023-01-25T19:13:41.521Z,0.90
2023-01-25T19:16:13.434Z,0.90
2023-01-25T19:18:46.987Z,0.80
2023-01-25T19:21:25.881Z,0.80
2023-01-25T19:23:54.381Z,0.80
2023-01-25T19:26:23.790Z,0.80
2023-01-25T19:31:23.102Z,0.80
2023-01-25T19:33:55.450Z,0.90
2023-01-25T19:41:19.926Z,0.90
2023-01-25T19:51:14.267Z,1.00
2023-01-25T19:53:46.449Z,1.00
2023-01-25T19:56:17.760Z,1.00
2023-01-25T19:58:46.600Z,0.90
2023-01-25T20:01:19.344Z,0.90
2023-01-25T20:06:15.724Z,0.90
2023-01-25T20:08:45.002Z,1.00
2023-01-25T20:11:20.705Z,0.90
2023-01-25T20:13:49.023Z,0.80
2023-01-25T20:18:47.746Z,0.90
2023-01-25T20:21:20.225Z,1.00
2023-01-25T20:23:50.070Z,1.00
2023-01-25T20:26:19.537Z,0.90
2023-01-25T20:28:51.551Z,1.00
2023-01-25T20:31:39.400Z,0.90
2023-01-25T20:34:10.037Z,0.90
2023-01-25T20:39:05.450Z,0.90
2023-01-25T20:44:02.048Z,1.00
2023-01-25T20:49:01.810Z,1.00
2023-01-25T21:01:30.461Z,0.80
2023-01-25T21:03:58.185Z,0.80
2023-01-25T21:06:27.282Z,0.80
2023-01-25T21:16:24.137Z,0.70
2023-01-25T21:18:55.931Z,0.70
2023-01-25T21:21:28.071Z,0.60
2023-01-25T21:23:57.800Z,0.60
2023-01-25T21:26:29.583Z,0.70
2023-01-25T21:31:27.730Z,0.70
2023-01-25T21:36:22.915Z,0.70
2023-01-25T21:38:51.528Z,0.70
2023-01-25T21:41:20.538Z,0.70
2023-01-25T21:44:06.896Z,0.70
2023-01-25T21:49:21.245Z,0.70
2023-01-25T21:51:50.568Z,0.60
2023-01-25T21:54:20.138Z,0.60
2023-01-25T21:56:48.745Z,0.60
2023-01-25T22:04:11.670Z,0.70
2023-01-25T22:21:32.056Z,0.80
2023-01-25T22:24:04.631Z,0.70
2023-01-25T22:26:48.979Z,0.80
2023-01-25T22:46:29.317Z,0.60
2023-01-25T22:51:25.948Z,0.60
2023-01-25T22:56:22.788Z,0.60
2023-01-25T23:01:22.032Z,0.50
2023-01-25T23:03:49.952Z,0.50
2023-01-25T23:06:19.156Z,0.50
2023-01-25T23:08:46.788Z,0.60
2023-01-25T23:11:18.857Z,0.60
2023-01-25T23:21:28.677Z,0.60
2023-01-25T23:24:02.570Z,0.70
2023-01-25T23:26:37.840Z,0.70
2023-01-25T23:29:07.591Z,0.70
2023-01-25T23:34:03.707Z,0.70
2023-01-25T23:36:35.599Z,0.80
2023-01-25T23:41:30.683Z,0.80
2023-01-25T23:46:25.867Z,0.80
2023-01-25T23:56:21.092Z,0.60
2023-01-25T23:58:49.086Z,0.60
